createdAt,value
2022-09-13T00:01:00.670Z,98338.03
2022-09-13T00:03:27.644Z,98328.34
2022-09-13T00:05:54.704Z,98334.53
2022-09-13T00:08:21.987Z,98335.22
2022-09-13T00:10:49.334Z,98337.50
2022-09-13T00:13:17.607Z,98332.72
2022-09-13T00:15:50.264Z,98332.97
2022-09-13T00:18:18.878Z,98336.25
2022-09-13T00:20:46.636Z,98320.63
2022-09-13T00:23:14.197Z,98326.25
2022-09-13T00:25:41.310Z,98318.06
2022-09-13T00:28:08.274Z,98314.72
2022-09-13T00:30:35.387Z,98310.97
2022-09-13T00:33:04.954Z,98294.69
2022-09-13T00:35:32.256Z,98299.22
2022-09-13T00:38:02.169Z,98287.25
2022-09-13T00:40:30.652Z,98297.19
2022-09-13T00:42:57.991Z,98294.44
2022-09-13T00:45:24.813Z,98289.00
2022-09-13T00:48:06.451Z,98279.00
2022-09-13T00:50:50.505Z,98288.94
2022-09-13T00:53:19.870Z,98287.44
2022-09-13T00:55:58.044Z,98288.31
2022-09-13T00:58:34.861Z,98292.84
2022-09-13T01:01:04.471Z,98298.56
2022-09-13T01:03:35.152Z,98293.06
2022-09-13T01:06:15.480Z,98295.03
2022-09-13T01:08:48.673Z,98296.97
2022-09-13T01:11:34.138Z,98304.69
2022-09-13T01:14:01.633Z,98302.53
2022-09-13T01:16:28.633Z,98300.59
2022-09-13T01:18:55.418Z,98294.72
2022-09-13T01:22:06.304Z,98296.78
2022-09-13T01:25:17.068Z,98300.41
2022-09-13T01:28:11.602Z,98302.84
2022-09-13T01:30:44.877Z,98300.31
2022-09-13T01:33:20.396Z,98303.06
2022-09-13T01:36:49.504Z,98312.28
2022-09-13T01:39:45.963Z,98314.50
2022-09-13T01:42:27.358Z,98311.63
2022-09-13T01:45:23.340Z,98304.53
2022-09-13T01:48:16.293Z,98303.63
2022-09-13T01:50:57.905Z,98302.88
2022-09-13T01:53:51.233Z,98308.56
2022-09-13T01:56:33.144Z,98314.34
2022-09-13T01:59:12.978Z,98316.16
2022-09-13T02:02:02.861Z,98321.38
2022-09-13T02:04:40.422Z,98331.41
2022-09-13T02:07:46.893Z,98326.56
2022-09-13T02:10:23.051Z,98316.19
2022-09-13T02:12:54.036Z,98311.88
2022-09-13T02:15:29.819Z,98311.09
2022-09-13T02:18:13.877Z,98315.28
2022-09-13T02:20:46.234Z,98320.50
2022-09-13T02:23:22.011Z,98321.31
2022-09-13T02:25:53.479Z,98320.03
2022-09-13T02:28:36.963Z,98326.53
2022-09-13T02:31:09.202Z,98320.38
2022-09-13T02:33:50.160Z,98331.66
2022-09-13T02:36:24.241Z,98321.75
2022-09-13T02:38:59.671Z,98316.06
2022-09-13T02:42:00.729Z,98318.03
2022-09-13T02:44:40.136Z,98308.31
2022-09-13T02:47:22.674Z,98302.19
2022-09-13T02:50:17.620Z,98291.38
2022-09-13T02:53:20.275Z,98293.88
2022-09-13T02:56:53.256Z,98288.31
2022-09-13T02:59:24.156Z,98280.78
2022-09-13T03:02:03.651Z,98286.03
2022-09-13T03:04:30.695Z,98285.69
2022-09-13T03:06:57.519Z,98280.56
2022-09-13T03:09:25.080Z,98288.53
2022-09-13T03:12:10.406Z,98297.75
2022-09-13T03:15:10.474Z,98300.94
2022-09-13T03:18:15.023Z,98307.09
2022-09-13T03:21:13.560Z,98311.50
2022-09-13T03:24:24.297Z,98301.28
2022-09-13T03:26:56.980Z,98304.81
2022-09-13T03:29:56.091Z,98294.22
2022-09-13T03:32:54.487Z,98291.72
2022-09-13T03:35:30.153Z,98290.69
2022-09-13T03:38:09.756Z,98291.38
2022-09-13T03:40:55.650Z,98288.41
2022-09-13T03:43:47.173Z,98285.56
2022-09-13T03:46:48.699Z,98275.09
2022-09-13T03:49:19.222Z,98275.44
2022-09-13T03:51:50.673Z,98275.00
2022-09-13T03:54:32.285Z,98276.13
2022-09-13T03:57:22.258Z,98268.25
2022-09-13T03:59:55.342Z,98277.00
2022-09-13T04:02:25.052Z,98279.59
2022-09-13T04:04:52.293Z,98269.28
2022-09-13T04:07:24.774Z,98279.56
2022-09-13T04:09:51.756Z,98285.78
2022-09-13T04:12:19.050Z,98281.16
2022-09-13T04:14:46.801Z,98280.47
2022-09-13T04:17:14.702Z,98283.28
2022-09-13T04:19:44.703Z,98291.31
2022-09-13T04:22:11.558Z,98283.69
2022-09-13T04:24:39.701Z,98284.16
2022-09-13T04:27:07.201Z,98295.69
2022-09-13T04:29:34.081Z,98297.16
2022-09-13T04:32:01.352Z,98297.41
2022-09-13T04:34:28.230Z,98301.28
2022-09-13T04:36:55.496Z,98306.97
2022-09-13T04:39:23.692Z,98302.94
2022-09-13T04:41:54.666Z,98305.63
2022-09-13T04:44:24.358Z,98285.88
2022-09-13T04:46:51.851Z,98294.16
2022-09-13T04:49:20.070Z,98302.44
2022-09-13T04:51:47.441Z,98308.03
2022-09-13T04:54:16.063Z,98300.16
2022-09-13T04:56:45.044Z,98298.69
2022-09-13T04:59:13.625Z,98300.84
2022-09-13T05:01:41.571Z,98308.56
2022-09-13T05:04:10.210Z,98308.84
2022-09-13T05:06:37.743Z,98306.09
2022-09-13T05:09:05.455Z,98302.88
2022-09-13T05:11:32.627Z,98318.81
2022-09-13T05:14:00.756Z,98324.53
2022-09-13T05:16:33.598Z,98320.00
2022-09-13T05:19:01.711Z,98320.22
2022-09-13T05:21:30.896Z,98333.25
2022-09-13T05:23:58.931Z,98337.81
2022-09-13T05:26:30.904Z,98335.75
2022-09-13T05:29:01.366Z,98345.63
2022-09-13T05:31:36.951Z,98348.56
2022-09-13T05:34:14.240Z,98338.00
2022-09-13T05:36:42.073Z,98330.50
2022-09-13T05:42:02.145Z,98326.03
2022-09-13T05:44:28.911Z,98326.28
2022-09-13T05:46:55.655Z,98320.22
2022-09-13T05:49:22.482Z,98326.06
2022-09-13T05:51:49.184Z,98333.91
2022-09-13T05:54:16.606Z,98333.91
2022-09-13T05:56:43.348Z,98342.56
2022-09-13T05:59:14.775Z,98349.84
2022-09-13T06:01:42.122Z,98357.81
2022-09-13T06:04:09.111Z,98361.34
2022-09-13T06:06:35.990Z,98355.78
2022-09-13T06:09:02.808Z,98356.00
2022-09-13T06:11:29.704Z,98354.63
2022-09-13T06:13:56.511Z,98352.47
2022-09-13T06:16:23.499Z,98347.59
2022-09-13T06:18:50.577Z,98345.75
2022-09-13T06:21:25.761Z,98337.44
2022-09-13T06:23:55.482Z,98347.81
2022-09-13T06:26:28.387Z,98348.72
2022-09-13T06:28:57.329Z,98353.97
2022-09-13T06:31:27.603Z,98357.72
2022-09-13T06:34:03.040Z,98343.59
2022-09-13T06:36:30.217Z,98341.69
2022-09-13T06:38:57.971Z,98338.03
2022-09-13T06:41:26.349Z,98338.97
2022-09-13T06:43:57.530Z,98333.72
2022-09-13T06:46:26.482Z,98333.03
2022-09-13T06:48:54.197Z,98332.94
2022-09-13T06:51:24.145Z,98325.06
2022-09-13T06:53:52.930Z,98324.38
2022-09-13T06:56:25.812Z,98322.53
2022-09-13T06:58:57.673Z,98313.78
2022-09-13T07:01:32.401Z,98308.75
2022-09-13T07:04:05.303Z,98310.13
2022-09-13T07:06:39.316Z,98316.78
2022-09-13T07:09:10.814Z,98302.31
2022-09-13T07:11:41.218Z,98304.00
2022-09-13T07:14:09.314Z,98295.81
2022-09-13T07:16:39.304Z,98299.34
2022-09-13T07:19:13.271Z,98305.53
2022-09-13T07:21:40.045Z,98303.25
2022-09-13T07:24:07.233Z,98301.06
2022-09-13T07:26:34.508Z,98303.84
2022-09-13T07:29:06.359Z,98304.72
2022-09-13T07:31:40.284Z,98300.47
2022-09-13T07:34:13.452Z,98299.97
2022-09-13T07:36:40.328Z,98297.22
2022-09-13T07:39:12.075Z,98294.91
2022-09-13T07:41:41.994Z,98300.69
2022-09-13T07:44:11.819Z,98302.94
2022-09-13T07:46:41.565Z,98297.41
2022-09-13T07:49:09.614Z,98296.47
2022-09-13T07:51:42.690Z,98296.69
2022-09-13T07:54:17.556Z,98293.03
2022-09-13T07:56:45.552Z,98284.53
2022-09-13T07:59:15.614Z,98279.78
2022-09-13T08:01:46.409Z,98287.72
2022-09-13T08:04:18.561Z,98291.41
2022-09-13T08:06:47.081Z,98291.03
2022-09-13T08:09:14.811Z,98288.09
2022-09-13T08:11:51.738Z,98276.47
2022-09-13T08:14:21.505Z,98270.13
2022-09-13T08:16:48.533Z,98274.84
2022-09-13T08:19:18.490Z,98278.38
2022-09-13T08:21:46.183Z,98286.22
2022-09-13T08:24:21.214Z,98276.72
2022-09-13T08:26:48.437Z,98275.47
2022-09-13T08:29:16.036Z,98279.31
2022-09-13T08:31:43.248Z,98281.19
2022-09-13T08:34:14.422Z,98279.41
2022-09-13T08:36:41.242Z,98279.47
2022-09-13T08:39:10.784Z,98280.88
2022-09-13T08:42:16.492Z,98276.03
2022-09-13T08:44:53.157Z,98266.91
2022-09-13T08:47:48.104Z,98256.84
2022-09-13T08:50:31.155Z,98257.88
2022-09-13T08:53:26.521Z,98261.59
2022-09-13T08:56:14.015Z,98254.59
2022-09-13T08:59:10.076Z,98263.66
2022-09-13T09:02:13.669Z,98275.13
2022-09-13T09:05:14.175Z,98268.41
2022-09-13T09:08:01.804Z,98270.78
2022-09-13T09:10:41.327Z,98266.78
2022-09-13T09:13:31.367Z,98267.47
2022-09-13T09:16:31.733Z,98265.09
2022-09-13T09:19:16.630Z,98270.34
2022-09-13T09:21:48.864Z,98262.47
2022-09-13T09:24:25.962Z,98262.88
2022-09-13T09:26:58.160Z,98269.56
2022-09-13T09:29:32.654Z,98277.09
2022-09-13T09:32:44.261Z,98286.59
2022-09-13T09:35:29.291Z,98295.25
2022-09-13T09:38:49.153Z,98288.50
2022-09-13T09:41:22.830Z,98300.66
2022-09-13T09:44:20.117Z,98302.19
2022-09-13T09:46:59.734Z,98299.00
2022-09-13T09:49:57.785Z,98296.84
2022-09-13T09:52:34.950Z,98298.66
2022-09-13T09:55:21.036Z,98303.28
2022-09-13T09:58:00.541Z,98292.50
2022-09-13T10:00:33.976Z,98286.72
2022-09-13T10:03:19.781Z,98284.34
2022-09-13T10:05:48.814Z,98287.72
2022-09-13T10:08:31.560Z,98274.56
2022-09-13T10:11:00.218Z,98276.59
2022-09-13T10:13:31.794Z,98281.91
2022-09-13T10:16:05.431Z,98280.88
2022-09-13T10:18:44.955Z,98277.66
2022-09-13T10:21:18.375Z,98270.56
2022-09-13T10:23:47.405Z,98276.28
2022-09-13T10:26:19.603Z,98278.94
2022-09-13T10:28:58.529Z,98280.13
2022-09-13T10:31:34.356Z,98272.94
2022-09-13T10:34:07.494Z,98262.84
2022-09-13T10:36:53.145Z,98254.16
2022-09-13T10:39:23.862Z,98247.47
2022-09-13T10:41:58.599Z,98249.66
2022-09-13T10:44:52.285Z,98250.97
2022-09-13T10:47:34.477Z,98260.53
2022-09-13T10:50:29.189Z,98253.38
2022-09-13T10:52:59.044Z,98262.06
2022-09-13T10:55:33.371Z,98260.25
2022-09-13T10:58:03.065Z,98273.41
2022-09-13T11:00:55.015Z,98272.59
2022-09-13T11:03:51.287Z,98266.97
2022-09-13T11:06:49.600Z,98262.81
2022-09-13T11:09:52.869Z,98270.84
2022-09-13T11:12:55.445Z,98263.53
2022-09-13T11:15:43.105Z,98255.81
2022-09-13T11:18:38.883Z,98262.41
2022-09-13T11:21:33.301Z,98262.75
2022-09-13T11:24:16.677Z,98254.06
2022-09-13T11:27:04.660Z,98265.00
2022-09-13T11:29:50.035Z,98259.44
2022-09-13T11:33:03.554Z,98257.44
2022-09-13T11:36:11.741Z,98254.69
2022-09-13T11:39:10.354Z,98257.63
2022-09-13T11:41:39.986Z,98263.19
2022-09-13T11:44:33.364Z,98250.81
2022-09-13T11:47:25.529Z,98257.25
2022-09-13T11:50:17.833Z,98258.56
2022-09-13T11:53:17.286Z,98251.13
2022-09-13T11:56:00.569Z,98250.34
2022-09-13T11:58:46.114Z,98255.63
2022-09-13T12:01:24.292Z,98247.16
2022-09-13T12:04:06.402Z,98242.00
2022-09-13T12:06:46.788Z,98234.63
2022-09-13T12:09:40.712Z,98232.13
2022-09-13T12:12:13.728Z,98225.56
2022-09-13T12:14:58.207Z,98229.75
2022-09-13T12:18:07.394Z,98228.88
2022-09-13T12:20:40.259Z,98223.66
2022-09-13T12:23:21.706Z,98215.28
2022-09-13T12:26:10.659Z,98189.88
2022-09-13T12:28:52.701Z,98193.50
2022-09-13T12:31:25.835Z,98190.69
2022-09-13T12:33:55.861Z,98182.63
2022-09-13T12:36:55.717Z,98178.34
2022-09-13T12:39:46.672Z,98176.78
2022-09-13T12:43:03.844Z,98171.44
2022-09-13T12:45:46.023Z,98163.81
2022-09-13T12:48:39.279Z,98170.84
2022-09-13T12:51:17.069Z,98163.34
2022-09-13T12:54:23.959Z,98164.19
2022-09-13T12:57:28.165Z,98164.28
2022-09-13T13:00:21.935Z,98155.69
2022-09-13T13:03:11.743Z,98163.28
2022-09-13T13:05:46.191Z,98153.69
2022-09-13T13:08:22.165Z,98155.13
2022-09-13T13:11:14.287Z,98150.09
2022-09-13T13:13:49.168Z,98155.25
2022-09-13T13:16:33.139Z,98147.47
2022-09-13T13:19:03.392Z,98145.56
2022-09-13T13:21:40.699Z,98133.06
2022-09-13T13:24:16.602Z,98130.44
2022-09-13T13:26:43.484Z,98122.69
2022-09-13T13:29:23.610Z,98119.09
2022-09-13T13:32:07.557Z,98126.50
2022-09-13T13:34:47.659Z,98120.69
2022-09-13T13:37:14.349Z,98114.09
2022-09-13T13:39:47.612Z,98124.75
2022-09-13T13:42:29.445Z,98119.97
2022-09-13T13:45:01.489Z,98124.16
2022-09-13T13:47:28.412Z,98123.84
2022-09-13T13:50:18.567Z,98106.72
2022-09-13T13:52:48.334Z,98107.25
2022-09-13T13:55:40.662Z,98111.09
2022-09-13T13:58:19.486Z,98116.25
2022-09-13T14:00:52.318Z,98113.66
2022-09-13T14:03:43.122Z,98115.41
2022-09-13T14:06:23.407Z,98107.88
2022-09-13T14:09:30.427Z,98107.16
2022-09-13T14:12:15.045Z,98105.38
2022-09-13T14:15:20.847Z,98096.09
2022-09-13T14:18:24.658Z,98090.28
2022-09-13T14:21:04.232Z,98087.31
2022-09-13T14:23:32.211Z,98083.03
2022-09-13T14:26:01.325Z,98078.22
2022-09-13T14:28:28.610Z,98077.19
2022-09-13T14:30:59.825Z,98076.81
2022-09-13T14:33:37.245Z,98072.78
2022-09-13T14:36:18.689Z,98075.19
2022-09-13T14:38:58.999Z,98058.94
2022-09-13T14:41:38.389Z,98064.31
2022-09-13T14:44:28.499Z,98069.31
2022-09-13T14:47:01.864Z,98062.25
2022-09-13T14:49:39.172Z,98056.00
2022-09-13T14:52:24.657Z,98054.78
2022-09-13T14:54:57.463Z,98044.59
2022-09-13T14:57:33.889Z,98045.69
2022-09-13T15:00:17.503Z,98037.31
2022-09-13T15:02:52.789Z,98030.31
2022-09-13T15:05:25.435Z,98029.97
2022-09-13T15:07:55.866Z,98030.50
2022-09-13T15:10:34.781Z,98025.94
2022-09-13T15:13:04.584Z,98017.34
2022-09-13T15:15:31.465Z,98016.59
2022-09-13T15:18:26.383Z,98016.34
2022-09-13T15:21:01.963Z,98007.28
2022-09-13T15:23:33.904Z,97999.28
2022-09-13T15:26:13.733Z,98004.50
2022-09-13T15:28:44.011Z,97998.66
2022-09-13T15:31:21.450Z,97997.34
2022-09-13T15:33:49.736Z,97992.63
2022-09-13T15:36:29.493Z,97986.38
2022-09-13T15:39:20.095Z,97984.09
2022-09-13T15:41:53.200Z,97984.19
2022-09-13T15:44:20.393Z,97978.78
2022-09-13T15:46:54.975Z,97979.63
2022-09-13T15:49:28.204Z,97980.13
2022-09-13T15:51:58.859Z,97977.00
2022-09-13T15:54:41.445Z,97969.56
2022-09-13T15:57:18.185Z,97967.28
2022-09-13T15:59:45.261Z,97969.28
2022-09-13T16:02:27.983Z,97970.94
2022-09-13T16:04:55.576Z,97956.72
2022-09-13T16:07:24.517Z,97964.00
2022-09-13T16:09:52.495Z,97965.69
2022-09-13T16:12:22.194Z,97967.81
2022-09-13T16:14:48.993Z,97961.91
2022-09-13T16:17:27.653Z,97962.44
2022-09-13T16:19:55.081Z,97965.78
2022-09-13T16:22:23.274Z,97959.97
2022-09-13T16:24:50.391Z,97962.44
2022-09-13T16:27:19.665Z,97961.72
2022-09-13T16:29:47.355Z,97957.78
2022-09-13T16:32:14.285Z,97968.63
2022-09-13T16:34:41.349Z,97961.50
2022-09-13T16:37:08.150Z,97955.94
2022-09-13T16:39:35.106Z,97948.56
2022-09-13T16:42:02.126Z,97940.31
2022-09-13T16:44:29.079Z,97936.47
2022-09-13T16:46:55.977Z,97936.22
2022-09-13T16:49:22.701Z,97934.75
2022-09-13T16:51:49.543Z,97940.81
2022-09-13T16:54:17.910Z,97945.31
2022-09-13T16:56:44.702Z,97943.09
2022-09-13T16:59:11.653Z,97935.78
2022-09-13T17:01:38.484Z,97945.34
2022-09-13T17:04:06.244Z,97945.09
2022-09-13T17:06:33.038Z,97934.84
2022-09-13T17:09:03.158Z,97944.41
2022-09-13T17:11:34.516Z,97929.06
2022-09-13T17:14:04.803Z,97936.63
2022-09-13T17:16:47.132Z,97932.34
2022-09-13T17:19:25.461Z,97930.03
2022-09-13T17:21:57.416Z,97930.03
2022-09-13T17:24:27.222Z,97926.06
2022-09-13T17:26:56.737Z,97929.69
2022-09-13T17:29:25.566Z,97932.53
2022-09-13T17:31:52.743Z,97925.88
2022-09-13T17:34:19.702Z,97926.31
2022-09-13T17:36:50.901Z,97920.44
2022-09-13T17:39:19.748Z,97923.31
2022-09-13T17:41:51.420Z,97922.56
2022-09-13T17:44:18.461Z,97924.19
2022-09-13T17:46:45.758Z,97924.94
2022-09-13T17:49:12.960Z,97929.34
2022-09-13T17:51:39.818Z,97928.16
2022-09-13T17:54:11.814Z,97929.81
2022-09-13T17:56:42.984Z,97929.94
2022-09-13T17:59:20.507Z,97935.50
2022-09-13T18:01:51.402Z,97934.75
2022-09-13T18:04:22.269Z,97931.66
2022-09-13T18:06:52.306Z,97938.03
2022-09-13T18:09:20.104Z,97943.94
2022-09-13T18:11:47.785Z,97946.78
2022-09-13T18:14:17.241Z,97949.19
2022-09-13T18:16:45.359Z,97948.44
2022-09-13T18:19:13.059Z,97938.97
2022-09-13T18:21:41.278Z,97950.84
2022-09-13T18:24:08.277Z,97963.53
2022-09-13T18:26:36.218Z,97964.31
2022-09-13T18:29:07.522Z,97963.97
2022-09-13T18:31:36.921Z,97962.47
2022-09-13T18:34:07.889Z,97966.78
2022-09-13T18:36:36.849Z,97966.00
2022-09-13T18:39:06.589Z,97964.84
2022-09-13T18:41:37.637Z,97973.94
2022-09-13T18:44:06.511Z,97971.97
2022-09-13T18:46:40.788Z,97972.78
2022-09-13T18:49:11.017Z,97975.19
2022-09-13T18:51:44.541Z,97975.59
2022-09-13T18:54:15.910Z,97982.28
2022-09-13T18:56:48.153Z,97987.03
2022-09-13T18:59:15.105Z,97996.88
2022-09-13T19:01:44.116Z,97983.84
2022-09-13T19:04:19.860Z,97982.69
2022-09-13T19:06:50.816Z,97987.00
2022-09-13T19:09:20.674Z,97995.31
2022-09-13T19:11:51.807Z,97999.66
2022-09-13T19:14:23.808Z,97998.03
2022-09-13T19:16:53.908Z,97987.78
2022-09-13T19:19:20.683Z,97993.31
2022-09-13T19:21:47.623Z,97999.97
2022-09-13T19:24:20.198Z,98003.91
2022-09-13T19:26:51.499Z,98003.94
2022-09-13T19:29:24.855Z,98005.50
2022-09-13T19:31:53.112Z,98007.06
2022-09-13T19:34:22.466Z,98004.72
2022-09-13T19:36:57.102Z,98000.38
2022-09-13T19:39:28.543Z,98001.91
2022-09-13T19:41:56.896Z,98011.38
2022-09-13T19:44:24.147Z,98015.72
2022-09-13T19:47:06.884Z,98008.63
2022-09-13T19:49:38.503Z,97997.59
2022-09-13T19:52:05.266Z,98004.31
2022-09-13T19:54:32.794Z,97996.00
2022-09-13T19:57:00.366Z,98000.72
2022-09-13T19:59:27.205Z,97995.19
2022-09-13T20:01:54.043Z,97985.72
2022-09-13T20:04:23.527Z,97986.09
2022-09-13T20:06:51.913Z,97984.16
2022-09-13T20:09:20.659Z,97990.06
2022-09-13T20:11:48.937Z,97979.78
2022-09-13T20:14:19.172Z,97984.09
2022-09-13T20:16:46.432Z,97986.38
2022-09-13T20:22:09.398Z,97973.78
2022-09-13T20:24:36.312Z,97976.91
2022-09-13T20:27:03.468Z,97976.09
2022-09-13T20:29:31.338Z,97985.13
2022-09-13T20:31:59.401Z,97982.81
2022-09-13T20:34:27.034Z,97978.44
2022-09-13T20:36:54.773Z,97975.22
2022-09-13T20:39:21.642Z,97973.63
2022-09-13T20:41:49.836Z,97977.53
2022-09-13T20:44:17.426Z,97971.63
2022-09-13T20:46:44.565Z,97969.66
2022-09-13T20:49:11.980Z,97961.78
2022-09-13T20:51:38.990Z,97972.81
2022-09-13T20:54:07.058Z,97972.88
2022-09-13T20:56:34.834Z,97951.22
2022-09-13T20:59:02.704Z,97949.63
2022-09-13T21:01:32.713Z,97946.88
2022-09-13T21:04:00.412Z,97952.34
2022-09-13T21:06:30.575Z,97960.19
2022-09-13T21:08:59.881Z,97963.34
2022-09-13T21:11:35.007Z,97964.53
2022-09-13T21:14:08.354Z,97946.03
2022-09-13T21:16:41.205Z,97952.25
2022-09-13T21:19:09.077Z,97952.66
2022-09-13T21:21:39.879Z,97955.44
2022-09-13T21:24:12.035Z,97955.84
2022-09-13T21:26:42.349Z,97953.88
2022-09-13T21:29:11.515Z,97959.75
2022-09-13T21:31:39.878Z,97946.00
2022-09-13T21:34:14.523Z,97934.22
2022-09-13T21:36:42.228Z,97926.34
2022-09-13T21:39:09.701Z,97931.50
2022-09-13T21:41:36.800Z,97940.56
2022-09-13T21:44:04.757Z,97936.56
2022-09-13T21:46:35.503Z,97932.97
2022-09-13T21:49:06.526Z,97926.22
2022-09-13T21:51:41.908Z,97926.59
2022-09-13T21:54:14.622Z,97924.63
2022-09-13T21:56:44.130Z,97923.50
2022-09-13T21:59:15.235Z,97934.50
2022-09-13T22:01:46.655Z,97928.53
2022-09-13T22:04:22.220Z,97926.59
2022-09-13T22:06:53.383Z,97922.31
2022-09-13T22:09:23.666Z,97917.22
2022-09-13T22:11:50.535Z,97928.19
2022-09-13T22:14:21.958Z,97918.31
2022-09-13T22:16:52.349Z,97913.63
2022-09-13T22:19:24.130Z,97898.69
2022-09-13T22:21:56.098Z,97904.63
2022-09-13T22:24:25.809Z,97906.19
2022-09-13T22:26:56.519Z,97905.38
2022-09-13T22:29:23.767Z,97901.72
2022-09-13T22:31:52.224Z,97897.75
2022-09-13T22:34:25.094Z,97899.28
2022-09-13T22:36:55.547Z,97893.84
2022-09-13T22:39:23.352Z,97881.25
2022-09-13T22:41:50.282Z,97877.78
2022-09-13T22:44:18.148Z,97873.91
2022-09-13T22:46:48.080Z,97867.94
2022-09-13T22:49:18.632Z,97861.63
2022-09-13T22:51:49.326Z,97859.75
2022-09-13T22:54:18.739Z,97862.88
2022-09-13T22:56:46.755Z,97858.84
2022-09-13T22:59:18.465Z,97858.00
2022-09-13T23:01:46.168Z,97854.03
2022-09-13T23:04:13.482Z,97857.94
2022-09-13T23:06:43.861Z,97861.91
2022-09-13T23:09:15.353Z,97849.72
2022-09-13T23:11:42.982Z,97852.06
2022-09-13T23:14:13.969Z,97854.84
2022-09-13T23:16:51.459Z,97851.97
2022-09-13T23:19:22.737Z,97842.53
2022-09-13T23:21:51.947Z,97845.22
2022-09-13T23:24:18.957Z,97846.00
2022-09-13T23:26:46.706Z,97834.25
2022-09-13T23:29:18.306Z,97831.97
2022-09-13T23:31:47.031Z,97835.50
2022-09-13T23:34:15.086Z,97831.53
2022-09-13T23:36:44.290Z,97829.88
2022-09-13T23:39:16.608Z,97826.72
2022-09-13T23:41:45.630Z,97828.00
2022-09-13T23:44:13.356Z,97826.81
2022-09-13T23:46:40.332Z,97826.06
2022-09-13T23:49:07.211Z,97826.16
2022-09-13T23:51:33.957Z,97823.44
2022-09-13T23:54:01.138Z,97824.63
2022-09-13T23:56:31.115Z,97829.34
2022-09-13T23:59:00.944Z,97824.28
